메인 페이지
METAR-TAF:

METAR-TAF

공항 :

보드룸, 터키

위도: 37-14-53N, 경도: 027-40-55E, 고도: 6m

현재 날씨관측

예보는 39분 전, 13:50시(UTC)에 발표되었습니다.
남동11kt
온도 16°C
습도 77%
기압 1001 hPa
시정 10km 이상
고도 2000ft 상공 구름 조금, 적란운.
고도 3500ft 상공 구름 많음

METAR: LTFE 141350Z 13011KT 9999 FEW020CB BKN035 16/12 Q1001 RETSRA TEMPO FM1430 4000 TSRA

시각: 17:29 (14:29 UTC)

예보

예보는 3 시간 49분 전, 10:40시(UTC)에 발표되었습니다.
예보 대상 시간: 14일 12시부터 15일 12시까지 (UTC)
남동16kt, 순간 최대 풍속 30kt
시정 10km 이상
고도 2000ft 상공 구름 조금, 적란운.
고도 3000ft 상공 구름 많음
일시적
14일 12시부터 14일 16시까지 (UTC)
시정: 4000m
뇌우, 비
확률 40% :
일시적
14일 16시부터 14일 20시까지 (UTC)
시정: 4000m
뇌우, 비
확률 30% :
일시적
14일 20시부터 14일 24시까지 (UTC)
뇌우, 약한비
전환 중
15일 00시부터 15일 03시까지 (UTC)
여러 방향의 바람 2kt

TAF: LTFE 141040Z 1412/1512 14016G30KT 9999 FEW020CB BKN030 TEMPO 1412/1416 4000 TSRA PROB40 TEMPO 1416/1420 4000 TSRA PROB30 TEMPO 1420/1424 -TSRA BECMG 1500/1503 VRB02KT

4,000개 이상의 공항 관측 자료 및 예보 (METAR 및 TAF 보고).

지도상에서 검색 가능한 기상관측소가 노란 점과 빨간 점으로 표시되어 있습니다.

기상관측소 명을 보려면 표시 위로 마우스를 이동하세요.

날씨 관측과 예보를 보려면 클릭하세요.

지도 변경 : 확대하려면 엑스 표시가 있는 녹색 버튼, 축소하려면 빼기 표시가 있는 녹색 버튼, 다음 페이지의 지도를 보려면 녹색 화살표를 클릭하세요.


METAR-TAF: